createdAt,value
2023-04-06T00:01:01.130Z,99.90
2023-04-06T00:03:28.016Z,99.90
2023-04-06T00:05:54.858Z,99.90
2023-04-06T00:08:21.589Z,99.90
2023-04-06T00:10:48.497Z,99.90
2023-04-06T00:13:17.659Z,99.90
2023-04-06T00:15:45.694Z,99.90
2023-04-06T00:18:13.715Z,99.90
2023-04-06T00:20:41.871Z,99.90
2023-04-06T00:23:08.866Z,99.90
2023-04-06T00:25:35.994Z,99.90
2023-04-06T00:28:02.749Z,99.90
2023-04-06T00:30:29.571Z,99.90
2023-04-06T00:32:56.452Z,99.90
2023-04-06T00:35:23.186Z,99.90
2023-04-06T00:37:50.078Z,99.90
2023-04-06T00:40:17.763Z,99.90
2023-04-06T00:42:44.544Z,99.90
2023-04-06T00:45:12.840Z,99.90
2023-04-06T00:47:39.637Z,99.90
2023-04-06T00:50:07.934Z,99.90
2023-04-06T00:52:35.652Z,99.90
2023-04-06T00:55:04.865Z,99.90
2023-04-06T00:57:32.608Z,99.90
2023-04-06T01:00:00.877Z,99.90
2023-04-06T01:02:27.757Z,99.90
2023-04-06T01:04:56.082Z,99.90
2023-04-06T01:07:22.908Z,99.90
2023-04-06T01:09:51.338Z,99.90
2023-04-06T01:12:19.548Z,99.90
2023-04-06T01:14:47.435Z,99.90
2023-04-06T01:17:16.292Z,99.90
2023-04-06T01:19:43.154Z,99.90
2023-04-06T01:22:09.897Z,99.90
2023-04-06T01:24:37.008Z,99.90
2023-04-06T01:27:03.832Z,99.90
2023-04-06T01:29:30.604Z,99.90
2023-04-06T01:31:57.389Z,99.90
2023-04-06T01:34:24.112Z,99.90
2023-04-06T01:36:50.876Z,99.90
2023-04-06T01:39:17.705Z,99.90
2023-04-06T01:41:44.463Z,99.90
2023-04-06T01:44:12.705Z,99.90
2023-04-06T01:46:39.574Z,99.90
2023-04-06T01:49:06.715Z,99.90
2023-04-06T01:51:33.765Z,99.90
2023-04-06T01:54:00.536Z,99.90
2023-04-06T01:56:27.295Z,99.90
2023-04-06T01:58:54.117Z,99.90
2023-04-06T02:01:22.071Z,99.90
2023-04-06T02:03:49.028Z,99.90
2023-04-06T02:06:15.754Z,99.90
2023-04-06T02:08:42.609Z,99.90
2023-04-06T02:11:10.738Z,99.90
2023-04-06T02:13:38.641Z,99.90
2023-04-06T02:16:06.815Z,99.90
2023-04-06T02:18:35.026Z,99.90
2023-04-06T02:21:05.204Z,99.90
2023-04-06T02:23:32.044Z,99.90
2023-04-06T02:26:00.142Z,99.90
2023-04-06T02:28:27.096Z,99.90
2023-04-06T02:30:57.561Z,99.90
2023-04-06T02:33:26.516Z,99.90
2023-04-06T02:35:54.954Z,99.90
2023-04-06T02:38:22.185Z,99.90
2023-04-06T02:40:50.464Z,99.90
2023-04-06T02:43:20.655Z,99.90
2023-04-06T02:45:50.323Z,99.90
2023-04-06T02:48:17.104Z,99.90
2023-04-06T02:50:43.923Z,99.90
2023-04-06T02:53:10.742Z,99.90
2023-04-06T02:55:37.524Z,99.90
2023-04-06T02:58:04.411Z,99.90
2023-04-06T03:00:31.198Z,99.90
2023-04-06T03:02:57.999Z,99.90
2023-04-06T03:05:24.942Z,99.90
2023-04-06T03:07:51.821Z,99.90
2023-04-06T03:10:18.597Z,99.90
2023-04-06T03:12:47.668Z,99.90
2023-04-06T03:15:15.616Z,99.90
2023-04-06T03:17:45.940Z,99.90
2023-04-06T03:20:14.100Z,99.90
2023-04-06T03:22:41.038Z,99.90
2023-04-06T03:25:08.088Z,99.90
2023-04-06T03:27:34.823Z,99.90
2023-04-06T03:30:01.933Z,99.90
2023-04-06T03:32:28.725Z,99.90
2023-04-06T03:34:55.528Z,99.90
2023-04-06T03:37:22.325Z,99.90
2023-04-06T03:39:49.105Z,99.90
2023-04-06T03:42:15.991Z,99.90
2023-04-06T03:44:44.004Z,99.90
2023-04-06T03:47:10.722Z,99.90
2023-04-06T03:49:39.938Z,99.90
2023-04-06T03:52:07.400Z,99.90
2023-04-06T03:54:34.113Z,99.90
2023-04-06T03:57:03.242Z,99.90
2023-04-06T03:59:32.118Z,99.90
2023-04-06T04:02:02.137Z,99.90
2023-04-06T04:04:30.265Z,99.90
2023-04-06T04:06:58.305Z,99.90
2023-04-06T04:09:28.518Z,99.90
2023-04-06T04:11:57.941Z,99.90
2023-04-06T04:14:25.831Z,99.90
2023-04-06T04:16:54.018Z,99.90
2023-04-06T04:19:22.119Z,99.90
2023-04-06T04:21:50.070Z,99.90
2023-04-06T04:24:16.848Z,99.90
2023-04-06T04:26:45.628Z,99.90
2023-04-06T04:29:14.446Z,99.90
2023-04-06T04:31:42.625Z,99.90
2023-04-06T04:34:12.604Z,99.90
2023-04-06T04:36:42.689Z,99.90
2023-04-06T04:39:12.622Z,99.90
2023-04-06T04:41:39.465Z,99.90
2023-04-06T04:44:07.283Z,99.90
2023-04-06T04:46:34.108Z,99.90
2023-04-06T04:49:00.994Z,99.90
2023-04-06T04:51:27.931Z,99.90
2023-04-06T04:53:56.122Z,99.90
2023-04-06T04:56:22.934Z,99.90
2023-04-06T04:58:50.898Z,99.90
2023-04-06T05:01:18.990Z,99.90
2023-04-06T05:03:47.299Z,99.90
2023-04-06T05:06:17.374Z,99.90
2023-04-06T05:08:46.801Z,99.90
2023-04-06T05:11:16.564Z,99.90
2023-04-06T05:13:48.105Z,99.90
2023-04-06T05:16:26.526Z,99.90
2023-04-06T05:18:54.931Z,99.90
2023-04-06T05:21:26.077Z,99.90
2023-04-06T05:23:55.512Z,99.90
2023-04-06T05:26:22.367Z,99.90
2023-04-06T05:28:49.143Z,99.90
2023-04-06T05:31:16.052Z,99.90
2023-04-06T05:33:42.877Z,99.90
2023-04-06T05:36:09.736Z,99.90
2023-04-06T05:38:36.525Z,99.90
2023-04-06T05:41:03.468Z,99.90
2023-04-06T05:43:30.305Z,99.90
2023-04-06T05:45:57.125Z,99.90
2023-04-06T05:48:24.173Z,99.90
2023-04-06T05:50:51.293Z,99.90
2023-04-06T05:53:18.234Z,99.90
2023-04-06T05:55:44.997Z,99.90
2023-04-06T05:58:13.113Z,99.90
2023-04-06T06:00:40.117Z,99.90
2023-04-06T06:03:08.130Z,99.90
2023-04-06T06:05:35.336Z,99.90
2023-04-06T06:08:03.448Z,99.90
2023-04-06T06:10:30.465Z,99.90
2023-04-06T06:12:57.407Z,99.90
2023-04-06T06:15:24.619Z,99.90
2023-04-06T06:17:51.398Z,99.90
2023-04-06T06:20:18.314Z,99.90
2023-04-06T06:22:45.062Z,99.90
2023-04-06T06:25:11.814Z,99.90
2023-04-06T06:28:09.864Z,99.90
2023-04-06T06:30:36.691Z,99.90
2023-04-06T06:33:03.631Z,99.90
2023-04-06T06:35:30.813Z,99.90
2023-04-06T06:37:57.747Z,99.90
2023-04-06T06:40:24.909Z,99.90
2023-04-06T06:42:52.020Z,99.90
2023-04-06T06:45:18.903Z,99.90
2023-04-06T06:47:45.738Z,99.90
2023-04-06T06:50:12.721Z,99.90
2023-04-06T06:52:40.090Z,99.90
2023-04-06T06:55:07.374Z,99.90
2023-04-06T06:57:34.243Z,99.90
2023-04-06T07:00:01.256Z,99.90
2023-04-06T07:02:29.722Z,99.90
2023-04-06T07:04:56.700Z,99.90
2023-04-06T07:07:23.661Z,99.90
2023-04-06T07:09:50.567Z,99.90
2023-04-06T07:12:17.603Z,99.90
2023-04-06T07:14:44.502Z,99.90
2023-04-06T07:17:11.454Z,99.90
2023-04-06T07:19:38.307Z,99.90
2023-04-06T07:22:05.192Z,99.90
2023-04-06T07:24:32.048Z,99.90
2023-04-06T07:27:00.385Z,99.90
2023-04-06T07:29:28.090Z,99.90
2023-04-06T07:31:55.398Z,99.90
2023-04-06T07:34:22.889Z,99.90
2023-04-06T07:36:49.743Z,99.90
2023-04-06T07:39:17.810Z,99.90
2023-04-06T07:41:44.701Z,99.90
2023-04-06T07:44:11.457Z,99.90
2023-04-06T07:46:42.985Z,99.90
2023-04-06T07:49:12.701Z,99.90
2023-04-06T07:51:42.598Z,99.90
2023-04-06T07:54:09.702Z,99.90
2023-04-06T07:56:45.863Z,99.90
2023-04-06T07:59:12.810Z,99.90
2023-04-06T08:01:39.684Z,99.90
2023-04-06T08:04:08.173Z,99.90
2023-04-06T08:06:35.224Z,99.90
2023-04-06T08:09:03.875Z,99.90
2023-04-06T08:11:32.205Z,99.90
2023-04-06T08:14:00.019Z,99.90
2023-04-06T08:16:26.912Z,99.90
2023-04-06T08:18:55.888Z,99.90
2023-04-06T08:21:24.152Z,99.90
2023-04-06T08:23:50.844Z,99.90
2023-04-06T08:26:20.716Z,99.90
2023-04-06T08:28:47.795Z,99.90
2023-04-06T08:31:15.901Z,99.90
2023-04-06T08:33:42.702Z,99.90
2023-04-06T08:36:18.578Z,99.90
2023-04-06T08:38:45.881Z,99.90
2023-04-06T08:41:14.653Z,99.90
2023-04-06T08:43:50.639Z,99.90
2023-04-06T08:46:23.097Z,99.90
2023-04-06T08:48:50.313Z,99.90
2023-04-06T08:51:17.782Z,99.90
2023-04-06T08:53:44.905Z,99.90
2023-04-06T08:56:12.315Z,99.90
2023-04-06T08:58:41.070Z,99.90
2023-04-06T09:01:09.689Z,99.90
2023-04-06T09:03:57.684Z,99.90
2023-04-06T09:06:25.471Z,98.40
2023-04-06T09:08:52.199Z,98.10
2023-04-06T09:11:21.702Z,97.90
2023-04-06T09:13:54.628Z,97.60
2023-04-06T09:16:26.563Z,97.40
2023-04-06T09:18:53.481Z,97.10
2023-04-06T09:21:25.436Z,97.20
2023-04-06T09:24:00.586Z,96.70
2023-04-06T09:29:25.757Z,96.10
2023-04-06T09:32:02.704Z,96.30
2023-04-06T09:34:31.001Z,96.20
2023-04-06T09:36:58.044Z,95.30
2023-04-06T09:39:25.958Z,95.10
2023-04-06T09:41:54.272Z,94.90
2023-04-06T09:44:27.610Z,94.90
2023-04-06T09:47:00.575Z,94.10
2023-04-06T09:49:34.933Z,93.80
2023-04-06T09:52:08.997Z,93.30
2023-04-06T09:54:39.409Z,92.90
2023-04-06T09:57:36.052Z,91.90
2023-04-06T10:00:10.486Z,91.30
2023-04-06T10:03:20.962Z,90.50
2023-04-06T10:05:58.164Z,90.30
2023-04-06T10:08:29.679Z,89.80
2023-04-06T10:10:59.677Z,88.60
2023-04-06T10:13:28.007Z,89.50
2023-04-06T10:15:58.565Z,88.90
2023-04-06T10:18:25.752Z,85.50
2023-04-06T10:21:14.685Z,83.60
2023-04-06T10:23:55.270Z,81.90
2023-04-06T10:26:23.548Z,79.20
2023-04-06T10:28:51.382Z,80.10
2023-04-06T10:31:29.363Z,79.90
2023-04-06T10:34:03.421Z,79.20
2023-04-06T10:36:34.291Z,78.50
2023-04-06T10:39:05.454Z,78.20
2023-04-06T10:41:37.926Z,76.60
2023-04-06T10:44:04.963Z,75.70
2023-04-06T10:46:32.832Z,75.20
2023-04-06T10:49:10.868Z,72.80
2023-04-06T10:51:39.791Z,71.50
2023-04-06T10:54:07.586Z,72.40
2023-04-06T10:56:43.703Z,71.80
2023-04-06T10:59:10.566Z,69.20
2023-04-06T11:01:37.769Z,68.70
2023-04-06T11:04:04.814Z,69.30
2023-04-06T11:06:32.329Z,70.20
2023-04-06T11:09:00.002Z,71.80
2023-04-06T11:11:28.175Z,70.60
2023-04-06T11:13:57.900Z,70.90
2023-04-06T11:16:34.436Z,71.30
2023-04-06T11:19:06.106Z,71.20
2023-04-06T11:21:47.056Z,70.50
2023-04-06T11:24:25.022Z,68.20
2023-04-06T11:26:59.220Z,67.10
2023-04-06T11:29:31.134Z,67.10
2023-04-06T11:32:05.998Z,67.70
2023-04-06T11:34:55.362Z,67.60
2023-04-06T11:37:27.368Z,66.20
2023-04-06T11:39:56.427Z,65.60
2023-04-06T11:42:28.015Z,63.80
2023-04-06T11:44:59.687Z,63.50
2023-04-06T11:47:36.075Z,65.30
2023-04-06T11:50:15.613Z,63.90
2023-04-06T11:52:44.200Z,62.30
2023-04-06T11:55:13.231Z,63.80
2023-04-06T11:57:41.849Z,64.00
2023-04-06T12:00:10.285Z,63.80
2023-04-06T12:02:39.269Z,64.50
2023-04-06T12:05:07.182Z,64.70
2023-04-06T12:07:35.047Z,65.00
2023-04-06T12:10:04.302Z,64.90
2023-04-06T12:12:31.430Z,65.20
2023-04-06T12:14:59.659Z,64.10
2023-04-06T12:17:27.596Z,64.40
2023-04-06T12:20:01.822Z,64.20
2023-04-06T12:22:32.877Z,63.40
2023-04-06T12:24:59.941Z,62.20
2023-04-06T12:27:28.268Z,61.90
2023-04-06T12:29:57.655Z,60.80
2023-04-06T12:32:28.059Z,58.50
2023-04-06T12:34:57.434Z,58.00
2023-04-06T12:37:26.681Z,57.70
2023-04-06T12:39:56.143Z,56.40
2023-04-06T12:42:22.940Z,56.90
2023-04-06T12:44:53.368Z,56.90
2023-04-06T12:47:21.525Z,56.60
2023-04-06T12:49:48.455Z,55.80
2023-04-06T12:52:15.576Z,56.10
2023-04-06T12:54:43.156Z,55.00
2023-04-06T12:57:09.968Z,54.80
2023-04-06T12:59:36.840Z,54.50
2023-04-06T13:02:05.220Z,53.10
2023-04-06T13:04:32.019Z,53.60
2023-04-06T13:07:03.623Z,53.90
2023-04-06T13:09:36.221Z,54.00
2023-04-06T13:12:05.001Z,53.00
2023-04-06T13:14:33.360Z,52.30
2023-04-06T13:17:01.024Z,51.80
2023-04-06T13:19:28.330Z,51.60
2023-04-06T13:21:55.235Z,51.10
2023-04-06T13:24:23.697Z,51.20
2023-04-06T13:26:50.805Z,50.60
2023-04-06T13:29:17.992Z,50.10
2023-04-06T13:31:45.981Z,48.80
2023-04-06T13:34:12.897Z,49.80
2023-04-06T13:36:41.179Z,49.30
2023-04-06T13:39:09.252Z,49.10
2023-04-06T13:41:40.945Z,48.30
2023-04-06T13:44:09.067Z,48.90
2023-04-06T13:46:35.911Z,49.10
2023-04-06T13:49:05.872Z,48.50
2023-04-06T13:51:32.772Z,48.00
2023-04-06T13:53:59.562Z,48.30
2023-04-06T13:56:26.338Z,46.60
2023-04-06T13:58:55.893Z,47.50
2023-04-06T14:01:22.757Z,47.90
2023-04-06T14:03:50.429Z,47.60
2023-04-06T14:08:47.080Z,47.70
2023-04-06T14:11:18.151Z,47.70
2023-04-06T14:13:45.258Z,47.60
2023-04-06T14:16:12.376Z,47.00
2023-04-06T14:18:39.316Z,47.00
2023-04-06T14:21:06.083Z,47.50
2023-04-06T14:23:32.976Z,47.80
2023-04-06T14:26:07.378Z,47.40
2023-04-06T14:28:35.284Z,46.30
2023-04-06T14:31:03.233Z,46.80
2023-04-06T14:33:32.640Z,47.20
2023-04-06T14:35:59.736Z,47.50
2023-04-06T14:38:26.571Z,46.70
2023-04-06T14:40:53.856Z,46.90
2023-04-06T14:43:20.567Z,46.60
2023-04-06T14:45:47.273Z,45.90
2023-04-06T14:48:14.318Z,45.60
2023-04-06T14:50:42.537Z,45.70
2023-04-06T14:53:09.462Z,45.20
2023-04-06T14:55:40.666Z,45.10
2023-04-06T14:58:09.122Z,45.20
2023-04-06T15:00:40.028Z,44.80
2023-04-06T15:03:07.870Z,45.30
2023-04-06T15:05:41.052Z,45.60
2023-04-06T15:08:17.914Z,45.00
2023-04-06T15:10:44.590Z,44.70
2023-04-06T15:13:12.920Z,44.80
2023-04-06T15:15:45.179Z,44.60
2023-04-06T15:18:13.371Z,44.10
2023-04-06T15:20:41.565Z,44.30
2023-04-06T15:23:08.929Z,44.30
2023-04-06T15:25:36.873Z,44.80
2023-04-06T15:28:03.980Z,44.60
2023-04-06T15:30:40.235Z,44.60
2023-04-06T15:33:09.529Z,44.60
2023-04-06T15:35:36.861Z,44.30
2023-04-06T15:38:05.092Z,45.10
2023-04-06T15:40:32.988Z,44.70
2023-04-06T15:43:05.856Z,44.70
2023-04-06T15:45:33.995Z,44.60
2023-04-06T15:48:00.683Z,44.90
2023-04-06T15:50:31.020Z,45.20
2023-04-06T15:52:57.719Z,45.00
2023-04-06T15:55:27.334Z,45.20
2023-04-06T15:57:54.064Z,44.60
2023-04-06T16:00:21.310Z,45.10
2023-04-06T16:02:48.318Z,45.00
2023-04-06T16:05:15.167Z,45.10
2023-04-06T16:07:42.047Z,45.50
2023-04-06T16:10:09.493Z,45.50
2023-04-06T16:12:36.400Z,45.80
2023-04-06T16:15:03.255Z,45.80
2023-04-06T16:17:30.061Z,45.80
2023-04-06T16:19:57.341Z,45.50
2023-04-06T16:22:24.092Z,45.30
2023-04-06T16:24:50.934Z,45.30
2023-04-06T16:27:18.137Z,45.50
2023-04-06T16:29:44.876Z,45.50
2023-04-06T16:32:12.982Z,45.50
2023-04-06T16:34:41.040Z,45.50
2023-04-06T16:37:08.984Z,45.70
2023-04-06T16:39:36.902Z,45.80
2023-04-06T16:42:03.993Z,45.80
2023-04-06T16:44:39.382Z,45.90
2023-04-06T16:47:07.401Z,46.50
2023-04-06T16:49:34.147Z,46.70
2023-04-06T16:52:01.954Z,46.90
2023-04-06T16:54:29.806Z,47.00
2023-04-06T16:56:59.217Z,47.40
2023-04-06T16:59:26.074Z,47.50
2023-04-06T17:01:53.049Z,47.70
2023-04-06T17:04:19.931Z,48.00
2023-04-06T17:06:47.005Z,48.00
2023-04-06T17:09:13.833Z,48.10
2023-04-06T17:11:46.617Z,48.20
2023-04-06T17:14:13.943Z,48.10
2023-04-06T17:16:40.899Z,48.40
2023-04-06T17:19:07.934Z,48.40
2023-04-06T17:21:34.764Z,48.80
2023-04-06T17:24:01.514Z,49.00
2023-04-06T17:26:28.314Z,49.10
2023-04-06T17:28:55.014Z,49.50
2023-04-06T17:31:22.044Z,49.60
2023-04-06T17:33:48.899Z,49.70
2023-04-06T17:36:16.012Z,50.00
2023-04-06T17:38:44.330Z,50.20
2023-04-06T17:41:12.681Z,50.30
2023-04-06T17:43:41.038Z,50.70
2023-04-06T17:46:07.959Z,50.70
2023-04-06T17:48:34.913Z,51.10
2023-04-06T17:51:03.318Z,51.40
2023-04-06T17:53:30.202Z,51.60
2023-04-06T17:56:02.093Z,51.90
2023-04-06T17:58:30.403Z,52.10
2023-04-06T18:00:57.309Z,52.40
2023-04-06T18:03:24.025Z,52.80
2023-04-06T18:05:50.905Z,53.00
2023-04-06T18:08:19.095Z,53.20
2023-04-06T18:10:49.535Z,53.40
2023-04-06T18:13:18.872Z,53.80
2023-04-06T18:15:47.126Z,54.10
2023-04-06T18:18:17.567Z,54.40
2023-04-06T18:20:46.397Z,54.70
2023-04-06T18:23:14.253Z,55.30
2023-04-06T18:28:24.366Z,56.00
2023-04-06T18:30:52.599Z,56.30
2023-04-06T18:33:19.835Z,56.50
2023-04-06T18:35:47.868Z,56.80
2023-04-06T18:38:24.737Z,56.90
2023-04-06T18:40:52.706Z,57.00
2023-04-06T18:43:22.120Z,57.30
2023-04-06T18:45:51.220Z,57.50
2023-04-06T18:48:21.734Z,57.60
2023-04-06T18:50:58.629Z,57.80
2023-04-06T18:53:26.985Z,58.10
2023-04-06T18:55:58.313Z,58.20
2023-04-06T18:58:26.731Z,58.50
2023-04-06T19:00:57.038Z,58.60
2023-04-06T19:03:25.224Z,59.40
2023-04-06T19:05:52.224Z,59.10
2023-04-06T19:08:21.018Z,59.30
2023-04-06T19:10:50.030Z,59.60
2023-04-06T19:13:19.286Z,60.00
2023-04-06T19:15:47.480Z,60.20
2023-04-06T19:18:15.452Z,60.80
2023-04-06T19:20:43.311Z,60.70
2023-04-06T19:23:10.015Z,61.00
2023-04-06T19:25:36.737Z,61.10
2023-04-06T19:28:03.629Z,61.00
2023-04-06T19:30:30.312Z,61.40
2023-04-06T19:32:57.100Z,61.50
2023-04-06T19:35:23.900Z,61.70
2023-04-06T19:37:50.712Z,61.90
2023-04-06T19:40:18.709Z,62.00
2023-04-06T19:42:45.413Z,62.20
2023-04-06T19:45:13.366Z,62.40
2023-04-06T19:47:40.104Z,62.30
2023-04-06T19:50:07.696Z,62.30
2023-04-06T19:52:34.560Z,62.50
2023-04-06T19:55:01.254Z,62.50
2023-04-06T19:57:28.063Z,62.70
2023-04-06T19:59:56.159Z,62.70
2023-04-06T20:02:23.140Z,62.90
2023-04-06T20:04:50.086Z,63.00
2023-04-06T20:07:16.820Z,63.00
2023-04-06T20:09:43.726Z,63.10
2023-04-06T20:12:11.859Z,63.30
2023-04-06T20:14:38.560Z,63.30
2023-04-06T20:17:06.798Z,63.30
2023-04-06T20:19:37.316Z,63.40
2023-04-06T20:22:05.417Z,63.40
2023-04-06T20:24:36.916Z,63.50
2023-04-06T20:27:05.102Z,63.60
2023-04-06T20:29:31.890Z,63.80
2023-04-06T20:32:00.450Z,64.00
2023-04-06T20:34:31.350Z,64.10
2023-04-06T20:36:58.695Z,64.30
2023-04-06T20:39:25.973Z,64.30
2023-04-06T20:41:53.001Z,64.50
2023-04-06T20:44:20.274Z,64.50
2023-04-06T20:46:48.960Z,64.40
2023-04-06T20:49:15.763Z,64.60
2023-04-06T20:51:42.684Z,64.50
2023-04-06T20:54:09.514Z,64.80
2023-04-06T20:56:36.456Z,64.90
2023-04-06T20:59:03.643Z,65.40
2023-04-06T21:01:30.764Z,65.30
2023-04-06T21:03:58.092Z,65.80
2023-04-06T21:06:28.475Z,65.40
2023-04-06T21:08:55.400Z,65.50
2023-04-06T21:11:22.175Z,65.60
2023-04-06T21:13:49.020Z,65.80
2023-04-06T21:16:15.945Z,66.00
2023-04-06T21:18:44.248Z,66.20
2023-04-06T21:21:12.471Z,66.80
2023-04-06T21:23:39.729Z,67.20
2023-04-06T21:26:07.748Z,67.40
2023-04-06T21:28:34.520Z,67.70
2023-04-06T21:31:06.948Z,67.50
2023-04-06T21:33:34.887Z,67.90
2023-04-06T21:36:09.182Z,68.00
2023-04-06T21:38:37.265Z,68.30
2023-04-06T21:41:05.182Z,68.50
2023-04-06T21:43:33.973Z,68.70
2023-04-06T21:46:05.251Z,68.90
2023-04-06T21:48:33.246Z,69.30
2023-04-06T21:50:59.972Z,69.10
2023-04-06T21:53:27.432Z,69.00
2023-04-06T21:55:55.681Z,69.30
2023-04-06T21:58:22.382Z,69.50
2023-04-06T22:00:49.130Z,69.70
2023-04-06T22:03:15.959Z,70.00
2023-04-06T22:05:42.713Z,69.90
2023-04-06T22:08:15.174Z,69.80
2023-04-06T22:10:44.909Z,70.00
2023-04-06T22:13:12.307Z,70.00
2023-04-06T22:15:39.244Z,70.30
2023-04-06T22:18:06.018Z,70.10
2023-04-06T22:20:32.996Z,70.20
2023-04-06T22:22:59.689Z,70.50
2023-04-06T22:25:26.631Z,70.60
2023-04-06T22:27:53.360Z,70.70
2023-04-06T22:30:20.189Z,70.90
2023-04-06T22:32:46.899Z,71.10
2023-04-06T22:35:13.696Z,71.20
2023-04-06T22:37:44.188Z,71.40
2023-04-06T22:40:12.262Z,71.50
2023-04-06T22:42:39.217Z,72.10
2023-04-06T22:45:06.865Z,71.80
2023-04-06T22:47:33.709Z,72.30
2023-04-06T22:50:00.531Z,72.30
2023-04-06T22:52:27.695Z,72.50
2023-04-06T22:54:54.375Z,72.50
2023-04-06T22:57:21.223Z,72.60
2023-04-06T22:59:48.487Z,72.70
2023-04-06T23:02:15.230Z,72.90
2023-04-06T23:04:42.298Z,72.80
2023-04-06T23:07:10.492Z,73.00
2023-04-06T23:09:37.494Z,73.00
2023-04-06T23:12:05.440Z,73.30
2023-04-06T23:14:32.129Z,73.30
2023-04-06T23:16:59.970Z,73.20
2023-04-06T23:19:28.398Z,73.40
2023-04-06T23:21:55.714Z,73.60
2023-04-06T23:24:22.814Z,73.80
2023-04-06T23:26:49.580Z,73.80
2023-04-06T23:29:16.356Z,73.80
2023-04-06T23:31:43.198Z,74.00
2023-04-06T23:34:09.954Z,74.20
2023-04-06T23:36:36.730Z,74.30
2023-04-06T23:39:03.513Z,74.60
2023-04-06T23:41:30.278Z,74.70
2023-04-06T23:43:57.129Z,75.00
2023-04-06T23:46:24.067Z,75.00
2023-04-06T23:48:50.842Z,75.10
2023-04-06T23:51:17.624Z,75.10
2023-04-06T23:53:44.344Z,75.30
2023-04-06T23:56:11.061Z,75.60
2023-04-06T23:58:38.788Z,75.70
